Terminal Aerodrome Forecast
Issued by NWS

Home | Current Version | Previous Version | Text Only | Print | Product List | Glossary On
Versions: 1 2 3 4 5 6 7 8 9 10 11 12 13 14 15 16 17 18 19 20 21 22 23 24 25 26 27
000
FTUS45 KBOI 171729
TAFMYL
TAF
KMYL 171729Z 1718/1818 19012KT P6SM VCSH FEW090 BKN150
     FM180200 VRB04KT P6SM SCT090 OVC200
     FM181200 20006KT P6SM VCSH SCT070 OVC120=

USA.gov is the U.S. government's official web portal to all federal, state and local government web resources and services.